Cooper Landing, AK (99572)

3:11 AM AKST on February 24, 2017 (GMT -0900)
cooper landing snug harbour | | Change Station

Elev 200 ft 60.49 °N, 149.79 °W | Updated 4 minutes ago

Mostly Cloudy
Mostly Cloudy
21.9 °F
Feels Like 22 °F
N
0.0
Wind Variable Wind from West

Today
High -- | Low -- °F
--% Chance of Precip.
Yesterday
High -- | Low -- °F
Precip. -- in
Pressure 30.43 in
Visibility 8.0 miles
Clouds Overcast 500 ft
Windchill 22 °F
Dew Point 21 °F
Humidity 95%
Rainfall 0.00 in
Snow Depth Not available.
8:11 AM 6:14 PM
Waning Crescent, 5% visible
METAR PAWD 241153Z AUTO 35006KT 8SM OVC005 01/00 A3043 RMK AO2 SLP303 T00060000 10006 21006 53000 TSNO
Pressure 30.43 in
Visibility 8.0 miles
Clouds Overcast 500 ft
Windchill 22 °F
Dew Point 21 °F
Humidity 95%
Rainfall 0.00 in
Snow Depth Not available.
8:11 AM 6:14 PM
Waning Crescent, 5% visible
METAR PAWD 241153Z AUTO 35006KT 8SM OVC005 01/00 A3043 RMK AO2 SLP303 T00060000 10006 21006 53000 TSNO

Get Your Daily Forecast Email!

Thanks for signing up!

Be on the lookout for a verification email in your inbox.

You'll start receiving the daily forecast at 8 AM.

×

10-Day Weather Forecast

Almanac

Astronomy

Feb. 24, 2017 Rise Set
Actual Time
Civil Twilight
Nautical Twilight
Astronomical Twilight
Moon
Length of Visible Light
Length of Day
Tomorrow will be .
, % of the Moon is Illuminated

Today's Extremes

State Highs State Lows

Community

WunderPhotos

Upload Photos

1,962,540 photos uploaded!

WunderBlog® & News

Nearby

Air Quality

  Air Quality AQ Index Pollutant
Not available.

Snow Depth

Station Depth Elevation

Earthquake Activity

City Distance Mag. Time & Date
Minimum magnitude displayed is 2.5.

Coastal Water Temperatures

Place Temperature

Stations

Nearby Weather Stations

Station Location Temp. Windchill Dew Point Humidity Wind Precip. Elev Updated Type
                   

Watches & Warnings

There are currently no watches in effect.